NCAR-RAP Real-Time Weather Data

Output produced by METARs form (18 August 2018  01:02 UTC)
found at http://weather.rap.ucar.edu/surface/
 
RJTT 180030Z 10007KT 9999 FEW030 BKN/// 24/14 Q1013 NOSIG
RJTT 180000Z 07006KT 9999 FEW030 BKN/// 23/13 Q1013 NOSIG RMK 1CU030 A2994
RJTT 172330Z 06008KT 9999 FEW030 BKN/// 23/14 Q1013 NOSIG
RJTT 172300Z 06007KT 020V090 9999 FEW030 BKN/// 22/13 Q1013 NOSIG RMK 1CU030 A2993
RJTT 172230Z 06004KT 9999 FEW030 BKN/// 22/13 Q1013 NOSIG
RJTT 172200Z 05004KT 010V110 9999 FEW030 BKN/// 22/14 Q1013 NOSIG RMK 1CU030 A2993
RJTT 172130Z 04008KT 9999 FEW030 BKN/// 22/13 Q1013 NOSIG
RJTT 172100Z 03007KT 9999 FEW030 BKN/// 21/14 Q1013 NOSIG RMK 1CU030 A2992
RJTT 172030Z 05009KT 9999 FEW030 BKN/// 21/14 Q1013 NOSIG RMK 1CU030 A2991
RJTT 172000Z 07009KT 9999 FEW030 BKN/// 21/14 Q1012 NOSIG RMK 1CU030 A2990
RJTT 171930Z 06008KT 9999 FEW030 BKN/// 21/13 Q1012 NOSIG RMK 1CU030 A2990
RJTT 171900Z 05008KT 9999 FEW030 21/14 Q1012 NOSIG RMK 1CU030 A2989
RJTT 171830Z 05008KT 9999 FEW050 21/14 Q1012 NOSIG RMK 1SC050 A2989
RJTT 171800Z 05009KT CAVOK 22/13 Q1012 NOSIG RMK A2988
RJTT 171730Z 05009KT CAVOK 22/14 Q1011 NOSIG RMK A2988
RJTT 171700Z 04009KT CAVOK 22/13 Q1011 NOSIG RMK A2988
RJTT 171630Z 02012KT CAVOK 22/13 Q1011 NOSIG RMK A2988
RJTT 171600Z 05011KT CAVOK 23/13 Q1011 NOSIG RMK A2988
RJTT 171530Z 03009KT CAVOK 23/13 Q1011 NOSIG RMK A2987
RJTT 171500Z 03009KT CAVOK 23/13 Q1011 NOSIG RMK 6AC080 A2988
RJTT 171430Z 01011KT CAVOK 24/12 Q1011 NOSIG RMK A2987
RJTT 171400Z 03011KT CAVOK 24/13 Q1011 NOSIG RMK 5AC090 A2988
RJTT 171330Z 35014KT CAVOK 24/11 Q1012 NOSIG RMK A2988
RJTT 171300Z 35015KT 9999 FEW030 SCT090 24/13 Q1011 NOSIG RMK 1CU030 3AC090 A2987
RJTT 171230Z 34018KT 9999 FEW030 SCT090 25/10 Q1011 NOSIG RMK 1CU030 3AC090 A2986
RJTT 171207Z 35016G28KT 9999 FEW030 SCT090 25/12 Q1011 RMK 1CU030 3AC090 A2985
RJTT 171200Z 35016KT CAVOK 25/12 Q1010 NOSIG RMK A2985
RJTT 171130Z 35017KT 9999 FEW030 BKN090 26/11 Q1010 NOSIG RMK 1CU030 5AC090 A2983
RJTT 171100Z 35016KT 9999 FEW030 BKN090 26/12 Q1009 NOSIG RMK 1CU030 5AC090 A2982
RJTT 171030Z 35016KT 9999 FEW030 26/11 Q1009 NOSIG RMK 1CU030 A2980
RJTT 171000Z 35017KT CAVOK 27/12 Q1009 NOSIG RMK A2979
RJTT 170930Z 34016KT CAVOK 27/11 Q1008 NOSIG RMK A2978
RJTT 170900Z 35016KT 9999 FEW050 28/11 Q1007 NOSIG RMK 1SC050 A2976
RJTT 170830Z 34018KT 9999 FEW040 28/11 Q1007 NOSIG RMK 1CU040 A2975
RJTT 170803Z 35018G28KT 9999 FEW040 28/13 Q1007 RMK 1CU040 A2974
RJTT 170800Z 35019KT 9999 FEW040 28/13 Q1007 NOSIG RMK 1CU040 A2974
RJTT 170730Z 35020KT 9999 FEW040 29/13 Q1006 NOSIG RMK 1CU040 A2973
RJTT 170721Z 35019G29KT 9999 FEW040 29/12 Q1006 RMK 1CU040 A2973
RJTT 170700Z 35019KT 9999 FEW040 29/11 Q1006 NOSIG RMK 1CU040 A2973
RJTT 170635Z 34019G29KT 9999 FEW040 29/12 Q1006 RMK 1CU040 A2973
RJTT 170630Z 34020KT 9999 FEW040 29/13 Q1006 NOSIG RMK 1CU040 A2973
RJTT 170600Z 34021KT 9999 FEW040 29/11 Q1006 NOSIG RMK 1CU040 A2973
RJTT 170530Z 34021G31KT 9999 FEW040 29/13 Q1006 NOSIG RMK 1CU040 A2973
RJTT 170500Z 35024KT 9999 FEW040 29/12 Q1006 TEMPO 34024G34KT RMK 1CU040 A2973
RJTT 170430Z 34024KT 9999 FEW040 29/10 Q1006 TEMPO 34024G34KT RMK 1CU040 A2973
RJTT 170415Z 34020G32KT 9999 FEW040 30/10 Q1006 RMK 1CU040 A2973
RJTT 170400Z 35021KT 9999 FEW040 29/13 Q1006 TEMPO 34022G32KT RMK 1CU040 A2973
RJTT 170330Z 35021KT 9999 FEW040 29/11 Q1007 TEMPO 34024G34KT
RJTT 170301Z 34019G29KT 9999 FEW040 29/11 Q1007 RMK 1CU040 A2975
RJTT 170300Z 34019KT 9999 FEW040 29/11 Q1007 TEMPO 34024G34KT RMK 1CU040 A2975
RJTT 170230Z 34022G32KT 9999 FEW040 28/11 Q1007 NOSIG RMK 1CU040 A2975
RJTT 170213Z 34020G30KT 9999 FEW040 28/12 Q1007 RMK 1CU040 A2975
RJTT 170200Z 34020KT 9999 FEW040 29/12 Q1007 TEMPO 34024G34KT RMK 1CU040 A2975
RJTT 170138Z 34021G31KT 9999 FEW030 27/12 Q1007 RMK 1CU030 A2975
RJTT 170130Z 34023KT 9999 FEW030 27/13 Q1007 TEMPO 34024G34KT
RJTT 170100Z 33019G30KT 290V360 9999 FEW030 SCT080 28/12 Q1007 NOSIG RMK 1CU030 3AC080 A2975
RJTT 170030Z 33020G31KT 9999 FEW025 SCT080 27/13 Q1007 WS R34L NOSIG
RJTT 170008Z 34018G28KT 9999 FEW025 SCT070 26/13 Q1007 RMK 1CU025 4AC070 A2974
RJTT 170000Z 34017KT 9999 FEW025 BKN070 26/14 Q1007 NOSIG RMK 1CU025 5AC070 A2974
RJTT 162330Z 34017G31KT 9999 FEW025 BKN070 26/13 Q1006 NOSIG RMK 1CU025 6AC070 A2973
RJTT 162305Z 34017G27KT 9999 FEW025 BKN060 26/14 Q1006 RMK 1CU025 6SC060 A2973
RJTT 162300Z 34017KT 9999 FEW025 BKN060 26/15 Q1006 NOSIG RMK 1CU025 6SC060 A2973
RJTT 162234Z 34021G31KT 9999 FEW025 BKN060 26/14 Q1006 RMK 1CU025 6SC060 A2972
RJTT 162230Z 34020KT 9999 FEW025 BKN060 26/14 Q1006 NOSIG RMK 1CU025 6SC060 A2972
RJTT 162201Z 34018G28KT 9999 FEW025 BKN060 25/15 Q1006 RMK 1CU025 6SC060 A2971
RJTT 162200Z 34019KT 9999 FEW025 BKN060 25/15 Q1006 NOSIG RMK 1CU025 6SC060 A2971
RJTT 162138Z 34017G27KT 310V010 9999 FEW025 BKN060 25/16 Q1005 RMK 1CU025 6SC060 A2970
RJTT 162130Z 33019KT 310V010 9999 FEW025 BKN060 25/15 Q1005 NOSIG RMK 1CU025 6SC060 A2970
RJTT 162111Z 34019G29KT 9999 FEW025 BKN060 25/16 Q1005 RMK 1CU025 7SC060 A2969
RJTT 162100Z 34020KT 9999 FEW025 BKN060 25/16 Q1005 NOSIG RMK 1CU025 7SC060 A2968
RJTT 162030Z 34020KT 9999 FEW025 BKN060 26/17 Q1004 NOSIG RMK 1CU025 7SC060 A2967
RJTT 162005Z 34016G28KT 9999 FEW025 BKN060 26/17 Q1004 RMK 1CU025 7SC060 A2967
RJTT 162000Z 34014KT 9999 FEW025 BKN060 26/16 Q1004 NOSIG RMK 1CU025 7SC060 A2966
RJTT 161944Z 35015G25KT 9999 FEW020 BKN060 26/17 Q1004 RMK 1CU020 7SC060 A2966
RJTT 161930Z 35016KT 9999 FEW020 BKN060 26/17 Q1004 NOSIG RMK 1CU020 7SC060 A2967
RJTT 161900Z 35016KT 9999 FEW020 BKN060 27/19 Q1004 NOSIG RMK 1CU020 7SC060 A2966
RJTT 161830Z 36013KT 9999 FEW020 BKN060 27/18 Q1004 NOSIG RMK 1CU020 7SC060 A2965
RJTT 161800Z 35009KT 280V030 9999 FEW010 BKN060 27/18 Q1004 NOSIG RMK 1ST010 7SC060 A2965
RJTT 161730Z 34013KT 9999 FEW010 BKN050 27/19 Q1003 NOSIG RMK 1ST010 7SC050 A2963
RJTT 161700Z 32012KT 280V340 9999 FEW010 BKN050 26/21 Q1003 NOSIG RMK 1ST010 7SC050 A2963
RJTT 161630Z 29005KT 260V330 9999 -SHRA FEW010 BKN050 26/22 Q1003 NOSIG RMK 1ST010 7SC050 A2964 LIGHTNING E
RJTT 161600Z VRB05KT 9999 -SHRA FEW010 SCT040 BKN/// 26/23 Q1004 BECMG 34010KT RMK 1ST010 4CU040 A2965 LIGHTNING E
RJTT 161530Z 28006KT 250V320 9999 -SHRA FEW010 SCT040 BKN/// 26/22 Q1004 NOSIG
RJTT 161523Z 31007KT 270V340 9999 -SHRA FEW010 BKN030 BKN/// 26/22 Q1004 RMK 1ST010 5CU030 A2966
RJTT 161511Z 35008KT 9999 SHRA FEW010 BKN030 BKN/// 26/22 Q1004 RMK 1ST010 5CU030 A2967
RJTT 161500Z 35009KT 9999 -SHRA FEW015 BKN025 BKN/// 27/22 Q1004 NOSIG RMK 1CU015 5CU025 A2967
RJTT 161445Z 32003KT 290V360 9999 R34L/P2000N R22/P2000N R34R/P2000N R23/P2000N +SHRA FEW015 BKN020 BKN/// 27/23 Q1004 RMK 1CU015 5CU020 A2966
RJTT 161430Z 35011KT 9999 FEW015 BKN020 BKN/// 28/23 Q1004 NOSIG
RJTT 161400Z 24012KT 9999 FEW020 BKN030 BKN/// 29/24 Q1004 BECMG 30012KT RMK 1CU020 5CU030 A2967 MOD TURB OBS AT 1334Z OSHIMA BTN FL200 AND FL150 BY A320
RJTT 161330Z 23010KT 180V250 9999 FEW025 SCT035 BKN/// 29/24 Q1004 BECMG 30012KT
RJTT 161300Z 22010KT 9999 FEW025 SCT045 BKN/// 29/24 Q1004 BECMG 30012KT RMK 1CU025 3SC045 A2966
RJTT 161230Z 23014KT 180V260 9999 FEW025 SCT045 BKN/// 29/24 Q1004 BECMG 30012KT
RJTT 161200Z 21014KT 9999 FEW025 BKN/// 28/24 Q1004 NOSIG RMK 1CU025 A2966
RJTT 161130Z 20016KT 160V230 9999 -SHRA FEW025 SCT150 BKN/// 28/23 Q1004 NOSIG
RJTT 161100Z 21014KT 9999 -SHRA FEW025 SCT090 BKN/// 28/24 Q1004 NOSIG
RJTT 161034Z 19018G28KT 170V240 9999 -SHRA FEW025 SCT090 BKN130 28/24 Q1003 RMK 1CU025 3AC090 6AC130 A2964
RJTT 161030Z 19020KT 9999 -SHRA FEW025 SCT090 BKN130 28/24 Q1002 TEMPO 22020G30KT
RJTT 161012Z 20019G29KT 9999 -SHRA FEW025 SCT120 BKN/// 28/24 Q1003 RMK 1CU025 4AC120 A2963 MOD TURB OBS AT 0950Z HILLS BTN 12000FT AND FL150 BY A320 AND OBS AT 0952Z 15NM N STONE BTN 12000FT AND 11000FT IN DES BY A321
RJTT 161000Z 19018KT 9999 FEW025 SCT120 BKN/// 29/23 Q1003 TEMPO 22020G30KT RMK 1CU025 4AC120 A2964
RJTT 160930Z 22018KT 180V250 9999 FEW025 SCT170 BKN/// 30/23 Q1004 TEMPO 22018G28KT RMK 1CU025 3AC170 A2966
RJTT 160900Z 21018KT 9999 FEW020 SCT180 BKN/// 30/24 Q1004 TEMPO 22018G28KT RMK 1CU020 3AC180 A2966
RJTT 160838Z 21019G31KT 9999 FEW020 SCT170 BKN/// 30/24 Q1004 RMK 1CU020 3AC170 A2965
RJTT 160830Z 21020KT 9999 FEW020 SCT180 BKN/// 30/24 Q1004 TEMPO 22022G32KT
RJTT 160824Z 21021G31KT 9999 FEW020 SCT180 BKN/// 30/24 Q1003 RMK 1CU020 3AC180 A2964
RJTT 160800Z 21023KT 9999 FEW020 SCT180 BKN/// 30/24 Q1003 TEMPO 22024G34KT RMK 1CU020 3AC180 A2964
RJTT 160730Z 21015G26KT 170V240 9999 FEW020 SCT170 BKN/// 30/24 Q1003 NOSIG
RJTT 160700Z 20020G31KT 9999 FEW020 SCT170 BKN/// 30/24 Q1003 NOSIG RMK 1CU020 4AC170 A2964
RJTT 160636Z 20022G32KT 9999 FEW020 SCT170 BKN/// 30/24 Q1003 RMK 1CU020 3AC170 A2964
RJTT 160630Z 20022KT 9999 FEW020 SCT170 BKN/// 31/24 Q1003 TEMPO 22024G34KT
RJTT 160600Z 20023G35KT 9999 FEW020 BKN/// 31/24 Q1003 NOSIG RMK 1CU020 A2964
RJTT 160530Z 20020G30KT 9999 FEW020 BKN/// 32/24 Q1004 NOSIG
RJTT 160509Z 20019G29KT 9999 FEW025 BKN/// 31/23 Q1004 RMK 1CU025 A2966
RJTT 160500Z 20020KT 9999 FEW020 BKN/// 31/23 Q1004 TEMPO 22026G36KT RMK 1CU020 A2966
RJTT 160430Z 21019G30KT 9999 FEW020 BKN/// 31/24 Q1005 NOSIG
RJTT 160400Z 21022G32KT 170V240 9999 FEW020 BKN/// 31/24 Q1005 NOSIG RMK 1CU020 A2969
RJTT 160330Z 21020G31KT 180V240 9999 FEW015 BKN/// 32/23 Q1005 NOSIG
RJTT 160300Z 20021G31KT 9999 FEW020 BKN/// 32/24 Q1005 NOSIG
RJTT 160230Z 21025G36KT 170V230 9999 FEW020 SCT150 BKN/// 32/23 Q1005 NOSIG
RJTT 160200Z 19022G34KT 9999 FEW015 SCT150 BKN/// 32/24 Q1006 NOSIG RMK 1CU015 4AC150 A2972
RJTT 160130Z 20020G33KT 9999 FEW015 SCT150 BKN/// 33/23 Q1006 NOSIG RMK 1CU015 3AC150 A2973
RJTT 160107Z 20021G33KT 160V220 9999 FEW015 BKN/// 32/24 Q1007 RMK 1CU015 A2974
RJTT 160100Z 20021KT 9999 FEW015 BKN/// 32/24 Q1007 TEMPO 20026G36KT RMK 1CU015 A2974
RJTT 160037Z 19021G31KT 9999 FEW015 BKN/// 31/24 Q1007 RMK 1CU015 A2975
RJTT 160030Z 19022KT 9999 FEW015 BKN/// 31/24 Q1007 TEMPO 20026G36KT RMK 1CU015 A2975
RJTT 160000Z 20023G35KT 9999 FEW015 BKN/// 31/24 Q1007 NOSIG
RJTT 152330Z 20020G33KT 9999 FEW015 BKN/// 30/24 Q1007 NOSIG
RJTT 152302Z 20020G30KT 9999 FEW015 BKN/// 30/25 Q1007 RMK 1CU015 A2975
RJTT 152300Z 20020KT 9999 FEW015 BKN/// 30/24 Q1007 TEMPO 20022G32KT RMK 1CU015 A2975
RJTT 152230Z 20022G32KT 9999 FEW015 BKN/// 30/24 Q1007 NOSIG RMK 1CU015 A2975
RJTT 152203Z 21020G30KT 9999 FEW015 BKN/// 29/25 Q1007 RMK 1CU015 A2976
RJTT 152200Z 21020KT 9999 FEW015 BKN/// 29/25 Q1007 TEMPO 20022G32KT
RJTT 152147Z 21019G29KT 9999 FEW015 BKN/// 29/24 Q1007 RMK 1CU015 A2976
RJTT 152130Z 20021KT 9999 FEW015 BKN/// 28/25 Q1007 TEMPO 20022G32KT RMK 1CU015 A2976
RJTT 152103Z 20019G29KT 9999 FEW015 SCT170 BKN/// 28/25 Q1008 RMK 1CU015 4AC170 A2977
RJTT 152100Z 20018KT 9999 FEW015 SCT170 BKN/// 28/25 Q1008 TEMPO 20020G30KT RMK 1CU015 4AC170 A2977
RJTT 152030Z 20018KT 9999 FEW015 SCT150 BKN/// 28/25 Q1008 TEMPO 20020G30KT
RJTT 152000Z 20016KT 9999 FEW015 SCT130 BKN/// 28/25 Q1008 NOSIG RMK 1CU015 3AC130 A2979
RJTT 151930Z 19020KT 9999 FEW015 SCT150 BKN/// 27/25 Q1008 NOSIG
RJTT 151900Z 20017KT 9999 FEW015 SCT150 BKN/// 27/25 Q1008 NOSIG RMK 1CU015 3AC150 A2978
RJTT 151830Z 20017KT 9999 FEW015 SCT150 BKN/// 28/25 Q1008 NOSIG
RJTT 151800Z 20014KT 9999 FEW020 BKN/// 28/25 Q1008 NOSIG RMK 1CU020 A2979
RJTT 151730Z 19016KT 9999 FEW020 BKN/// 27/25 Q1009 NOSIG RMK 1CU020 A2980
RJTT 151700Z 20015KT 9999 FEW020 BKN/// 28/25 Q1009 NOSIG RMK 1CU020 A2981
RJTT 151630Z 20014KT 9999 FEW020 BKN/// 28/24 Q1009 NOSIG RMK 1CU020 A2981
RJTT 151622Z 20016G26KT 9999 FEW020 BKN/// 28/24 Q1009 RMK 1CU020 A2981
RJTT 151600Z 19017KT 9999 FEW020 BKN/// 28/24 Q1009 NOSIG RMK 1CU020 A2982
RJTT 151540Z 20016G26KT 9999 FEW020 BKN/// 28/25 Q1009 RMK 1CU020 A2982
RJTT 151530Z 20016KT 9999 FEW020 BKN/// 28/24 Q1010 NOSIG
RJTT 151500Z 20016KT 9999 FEW015 BKN/// 28/24 Q1010 NOSIG RMK 1CU015 A2984
RJTT 151430Z 21016G27KT 9999 FEW020 BKN/// 28/25 Q1010 NOSIG
RJTT 151400Z 20018KT 9999 FEW020 SCT140 BKN/// 28/25 Q1011 NOSIG RMK 1CU020 3AC140 A2986
RJTT 151330Z 20017KT 9999 FEW025 BKN/// 28/25 Q1011 NOSIG